KFRG/FRG METAR and TAF weather

Enter ICAO airport designator
Station Type Date Time Source
KFRG METAR 2021/08/05 04:29 UTC NOAA

KFRG 050429Z AUTO 04008KT 10SM BKN011 OVC040 19/17 A3010 RMK AO2 T01940167


Station Type Date Time Source
KFRG Decoded METAR 2021/08/05 04:29 UTC NOAA

FARMINGDALE REPUBLIC AIRPORT , NY, United States (KFRG) 40-44N 073-25W 21M
Aug 05, 2021 - 12:29 AM EDT / 2021.08.05 0429 UTC
Wind: from the NE (040 degrees) at 9 MPH (8 KT):0
Visibility: 10 mile(s):0
Sky conditions: overcast
Temperature: 66.9 F (19.4 C)
Dew Point: 62.1 F (16.7 C)
Relative Humidity: 84%
Pressure (altimeter): 30.1 in. Hg (1019 hPa)
ob: KFRG 050429Z AUTO 04008KT 10SM BKN011 OVC040 19/17 A3010 RMK AO2 T01940167
cycle: 4

Station Type Date Time Source
KFRG TAF UTC NOAA

Error!

Example: see airport list